Impacts TAF Board
For situational awareness. Not to be used for flight planning purposes.
IDs:

KEWR - Newark Intl, NJ, US

Issued at 2341 UTC 16 Jul 2019
Updated at 0020 UTC 17 Jul 2019
Potential Impact None Slight Moderate High
Time<<17/13Z 17/14Z 17/15Z 17/16Z 17/17Z 17/18Z 17/19Z 17/20Z 17/21Z 17/22Z 17/23Z 18/00Z 18/01Z>>
Type PRVL PRVL PRVL PRVL PRVL PRVL PRVL PRVL PRVL PRVL
  [PRB30]  
PRVL
  [PRB30]  
PRVL
  [PRB30]  
PRVL
  [PRB30]  
VIS >6 >6 >6 >6 >6 >6 >6 >6 >6 >6
  [3]  
>6
  [3]  
>6
  [3]  
>6
  [3]  
CIG 250 250 250 250 250 250 250 250 250 40
  [25]  
40
  [25]  
40
  [25]  
40
  [25]  
Cover BKN BKN BKN BKN BKN BKN BKN BKN BKN BKN
  [BKN]  
BKN
  [BKN]  
BKN
  [BKN]  
BKN
  [BKN]  
FltCat VFR VFR VFR VFR VFR VFR VFR VFR VFR VFR
  [MVFR]  
VFR
  [MVFR]  
VFR
  [MVFR]  
VFR
  [MVFR]  
WX -- -- -- -- -- -- -- -- -- VCSH
  [TSRA]  
VCSH
  [TSRA]  
VCSH
  [TSRA]  
VCSH
  [TSRA]  
WDir 230 230 230 230 230 230 230 230 230 230
[230]
230
[230]
230
[230]
230
[230]
WSpd 7 7 7 10 10 10 10 10 10 10
  [10]  
10
  [10]  
10
  [10]  
10
  [10]  
WGst -- -- -- 16 16 16 16 16 16 --
  [--]  
--
  [--]  
--
  [--]  
--
  [--]  
Raw TAF
KEWR 162341Z 1700/1806 23007KT P6SM SCT150 BKN250
  FM171600 23010G16KT P6SM SCT150 BKN250
  FM172200 23010KT P6SM VCSH SCT025 BKN040
  PROB30 1722/1804 3SM TSRA BKN025 BKN040CB


METAR Board
Radar Display
Forecast Discussion
For situational awareness. Not to be used for flight planning purposes.